sensor_id;sensor_type;location;lat;lon;timestamp;temperature;humidity
15359;DHT22;7779;49.596;11.070;2024-03-02T00:00:51;8.10;70.30
15359;DHT22;7779;49.596;11.070;2024-03-02T00:03:18;8.10;70.40
15359;DHT22;7779;49.596;11.070;2024-03-02T00:05:49;8.10;70.50
15359;DHT22;7779;49.596;11.070;2024-03-02T00:08:23;8.10;70.80
15359;DHT22;7779;49.596;11.070;2024-03-02T00:10:51;8.10;71.00
15359;DHT22;7779;49.596;11.070;2024-03-02T00:13:20;8.10;70.70
15359;DHT22;7779;49.596;11.070;2024-03-02T00:15:53;8.10;71.60
15359;DHT22;7779;49.596;11.070;2024-03-02T00:18:24;8.10;70.90
15359;DHT22;7779;49.596;11.070;2024-03-02T00:20:55;8.10;70.90
15359;DHT22;7779;49.596;11.070;2024-03-02T00:23:23;8.10;71.20
15359;DHT22;7779;49.596;11.070;2024-03-02T00:25:54;8.10;71.00
15359;DHT22;7779;49.596;11.070;2024-03-02T00:28:24;8.10;71.30
15359;DHT22;7779;49.596;11.070;2024-03-02T00:33:21;8.10;71.20
15359;DHT22;7779;49.596;11.070;2024-03-02T00:35:49;8.20;71.30
15359;DHT22;7779;49.596;11.070;2024-03-02T00:38:15;8.20;71.30
15359;DHT22;7779;49.596;11.070;2024-03-02T00:40:42;8.20;71.40
15359;DHT22;7779;49.596;11.070;2024-03-02T00:43:32;8.20;71.40
15359;DHT22;7779;49.596;11.070;2024-03-02T00:46:02;8.20;72.10
15359;DHT22;7779;49.596;11.070;2024-03-02T00:48:29;8.20;71.50
15359;DHT22;7779;49.596;11.070;2024-03-02T00:50:56;8.20;71.50
15359;DHT22;7779;49.596;11.070;2024-03-02T00:53:25;8.20;71.50
15359;DHT22;7779;49.596;11.070;2024-03-02T00:55:52;8.30;71.70
15359;DHT22;7779;49.596;11.070;2024-03-02T00:58:18;8.30;71.70
15359;DHT22;7779;49.596;11.070;2024-03-02T01:00:43;8.30;71.70
15359;DHT22;7779;49.596;11.070;2024-03-02T01:03:09;8.30;71.70
15359;DHT22;7779;49.596;11.070;2024-03-02T01:05:36;8.40;71.70
15359;DHT22;7779;49.596;11.070;2024-03-02T01:08:02;8.40;71.70
15359;DHT22;7779;49.596;11.070;2024-03-02T01:10:28;8.40;71.70
15359;DHT22;7779;49.596;11.070;2024-03-02T01:12:54;8.40;71.70
15359;DHT22;7779;49.596;11.070;2024-03-02T01:15:19;8.40;71.80
15359;DHT22;7779;49.596;11.070;2024-03-02T01:17:46;8.40;71.80
15359;DHT22;7779;49.596;11.070;2024-03-02T01:20:11;8.40;71.80
15359;DHT22;7779;49.596;11.070;2024-03-02T01:22:37;8.50;71.80
15359;DHT22;7779;49.596;11.070;2024-03-02T01:25:03;8.50;71.80
15359;DHT22;7779;49.596;11.070;2024-03-02T01:27:29;8.50;71.70
15359;DHT22;7779;49.596;11.070;2024-03-02T01:29:55;8.50;71.70
15359;DHT22;7779;49.596;11.070;2024-03-02T01:32:21;8.50;71.60
15359;DHT22;7779;49.596;11.070;2024-03-02T01:34:46;8.50;71.60
15359;DHT22;7779;49.596;11.070;2024-03-02T01:37:12;8.50;71.60
15359;DHT22;7779;49.596;11.070;2024-03-02T01:39:38;8.50;71.60
15359;DHT22;7779;49.596;11.070;2024-03-02T01:42:04;8.50;71.60
15359;DHT22;7779;49.596;11.070;2024-03-02T01:44:30;8.50;71.60
15359;DHT22;7779;49.596;11.070;2024-03-02T01:46:56;8.50;71.70
15359;DHT22;7779;49.596;11.070;2024-03-02T01:49:21;8.50;71.70
15359;DHT22;7779;49.596;11.070;2024-03-02T01:51:48;8.50;71.70
15359;DHT22;7779;49.596;11.070;2024-03-02T01:54:13;8.50;71.60
15359;DHT22;7779;49.596;11.070;2024-03-02T01:56:39;8.50;71.60
15359;DHT22;7779;49.596;11.070;2024-03-02T01:59:06;8.50;71.60
15359;DHT22;7779;49.596;11.070;2024-03-02T02:01:31;8.50;71.50
15359;DHT22;7779;49.596;11.070;2024-03-02T02:03:57;8.50;71.50
15359;DHT22;7779;49.596;11.070;2024-03-02T02:06:23;8.50;71.50
15359;DHT22;7779;49.596;11.070;2024-03-02T02:08:49;8.50;71.50
15359;DHT22;7779;49.596;11.070;2024-03-02T02:11:16;8.40;71.40
15359;DHT22;7779;49.596;11.070;2024-03-02T02:13:42;8.40;71.40
15359;DHT22;7779;49.596;11.070;2024-03-02T02:16:08;8.40;71.30
15359;DHT22;7779;49.596;11.070;2024-03-02T02:18:34;8.40;71.30
15359;DHT22;7779;49.596;11.070;2024-03-02T02:21:02;8.40;71.30
15359;DHT22;7779;49.596;11.070;2024-03-02T02:23:28;8.30;71.00
15359;DHT22;7779;49.596;11.070;2024-03-02T02:25:53;8.30;71.00
15359;DHT22;7779;49.596;11.070;2024-03-02T02:28:20;8.20;70.90
15359;DHT22;7779;49.596;11.070;2024-03-02T02:30:46;8.20;70.90
15359;DHT22;7779;49.596;11.070;2024-03-02T02:33:11;8.20;70.90
15359;DHT22;7779;49.596;11.070;2024-03-02T02:35:37;8.10;70.90
15359;DHT22;7779;49.596;11.070;2024-03-02T02:38:03;8.10;71.00
15359;DHT22;7779;49.596;11.070;2024-03-02T02:40:29;8.10;71.10
15359;DHT22;7779;49.596;11.070;2024-03-02T02:42:56;8.10;71.20
15359;DHT22;7779;49.596;11.070;2024-03-02T02:45:23;8.00;71.30
15359;DHT22;7779;49.596;11.070;2024-03-02T02:47:48;8.00;71.40
15359;DHT22;7779;49.596;11.070;2024-03-02T02:50:14;8.00;71.60
15359;DHT22;7779;49.596;11.070;2024-03-02T02:52:41;7.90;71.60
15359;DHT22;7779;49.596;11.070;2024-03-02T02:55:09;7.90;71.70
15359;DHT22;7779;49.596;11.070;2024-03-02T02:57:37;7.90;71.80
15359;DHT22;7779;49.596;11.070;2024-03-02T03:00:12;7.90;71.90
15359;DHT22;7779;49.596;11.070;2024-03-02T03:02:44;7.90;72.10
15359;DHT22;7779;49.596;11.070;2024-03-02T03:05:13;7.90;72.10
15359;DHT22;7779;49.596;11.070;2024-03-02T03:07:40;7.90;72.10
15359;DHT22;7779;49.596;11.070;2024-03-02T03:10:07;7.90;72.20
15359;DHT22;7779;49.596;11.070;2024-03-02T03:12:33;7.90;72.30
15359;DHT22;7779;49.596;11.070;2024-03-02T03:15:00;7.90;72.30
15359;DHT22;7779;49.596;11.070;2024-03-02T03:17:26;7.90;73.20
15359;DHT22;7779;49.596;11.070;2024-03-02T03:19:53;7.90;73.20
15359;DHT22;7779;49.596;11.070;2024-03-02T03:22:18;8.00;72.70
15359;DHT22;7779;49.596;11.070;2024-03-02T03:24:44;8.00;72.60
15359;DHT22;7779;49.596;11.070;2024-03-02T03:27:10;8.00;72.70
15359;DHT22;7779;49.596;11.070;2024-03-02T03:29:39;8.00;72.80
15359;DHT22;7779;49.596;11.070;2024-03-02T03:32:05;8.10;72.80
15359;DHT22;7779;49.596;11.070;2024-03-02T03:34:35;8.10;72.90
15359;DHT22;7779;49.596;11.070;2024-03-02T03:37:02;8.10;73.00
15359;DHT22;7779;49.596;11.070;2024-03-02T03:39:28;8.20;73.00
15359;DHT22;7779;49.596;11.070;2024-03-02T03:41:54;8.10;72.90
15359;DHT22;7779;49.596;11.070;2024-03-02T03:44:20;8.10;72.90
15359;DHT22;7779;49.596;11.070;2024-03-02T03:46:45;8.20;73.00
15359;DHT22;7779;49.596;11.070;2024-03-02T03:49:11;8.20;73.00
15359;DHT22;7779;49.596;11.070;2024-03-02T03:51:37;8.20;73.00
15359;DHT22;7779;49.596;11.070;2024-03-02T03:54:02;8.20;73.00
15359;DHT22;7779;49.596;11.070;2024-03-02T03:56:28;8.30;72.70
15359;DHT22;7779;49.596;11.070;2024-03-02T03:58:54;8.30;73.10
15359;DHT22;7779;49.596;11.070;2024-03-02T04:01:19;8.30;73.80
15359;DHT22;7779;49.596;11.070;2024-03-02T04:03:47;8.30;73.00
15359;DHT22;7779;49.596;11.070;2024-03-02T04:06:13;8.40;73.10
15359;DHT22;7779;49.596;11.070;2024-03-02T04:08:41;8.40;73.00
15359;DHT22;7779;49.596;11.070;2024-03-02T04:11:06;8.40;73.00
15359;DHT22;7779;49.596;11.070;2024-03-02T04:13:33;8.40;72.90
15359;DHT22;7779;49.596;11.070;2024-03-02T04:15:59;8.40;72.90
15359;DHT22;7779;49.596;11.070;2024-03-02T04:18:24;8.40;72.80
15359;DHT22;7779;49.596;11.070;2024-03-02T04:20:50;8.40;72.80
15359;DHT22;7779;49.596;11.070;2024-03-02T04:23:16;8.40;72.80
15359;DHT22;7779;49.596;11.070;2024-03-02T04:25:41;8.40;72.80
15359;DHT22;7779;49.596;11.070;2024-03-02T04:28:07;8.40;73.60
15359;DHT22;7779;49.596;11.070;2024-03-02T04:30:33;8.30;72.70
15359;DHT22;7779;49.596;11.070;2024-03-02T04:32:59;8.30;72.70
15359;DHT22;7779;49.596;11.070;2024-03-02T04:35:24;8.30;72.70
15359;DHT22;7779;49.596;11.070;2024-03-02T04:37:51;8.30;73.70
15359;DHT22;7779;49.596;11.070;2024-03-02T04:40:16;8.30;72.70
15359;DHT22;7779;49.596;11.070;2024-03-02T04:42:42;8.30;72.70
15359;DHT22;7779;49.596;11.070;2024-03-02T04:45:08;8.20;72.70
15359;DHT22;7779;49.596;11.070;2024-03-02T04:47:34;8.20;72.70
15359;DHT22;7779;49.596;11.070;2024-03-02T04:50:00;8.20;72.70
15359;DHT22;7779;49.596;11.070;2024-03-02T04:52:25;8.20;72.70
15359;DHT22;7779;49.596;11.070;2024-03-02T04:54:51;8.20;72.70
15359;DHT22;7779;49.596;11.070;2024-03-02T04:57:35;8.20;72.80
15359;DHT22;7779;49.596;11.070;2024-03-02T05:00:01;8.20;72.70
15359;DHT22;7779;49.596;11.070;2024-03-02T05:02:27;8.10;72.70
15359;DHT22;7779;49.596;11.070;2024-03-02T05:04:52;8.10;72.70
15359;DHT22;7779;49.596;11.070;2024-03-02T05:07:18;8.10;72.80
15359;DHT22;7779;49.596;11.070;2024-03-02T05:09:44;8.00;72.70
15359;DHT22;7779;49.596;11.070;2024-03-02T05:12:10;8.00;72.80
15359;DHT22;7779;49.596;11.070;2024-03-02T05:14:54;8.00;72.80
15359;DHT22;7779;49.596;11.070;2024-03-02T05:17:21;8.00;72.70
15359;DHT22;7779;49.596;11.070;2024-03-02T05:19:47;8.00;72.80
15359;DHT22;7779;49.596;11.070;2024-03-02T05:22:13;8.00;72.90
15359;DHT22;7779;49.596;11.070;2024-03-02T05:24:39;7.90;72.80
15359;DHT22;7779;49.596;11.070;2024-03-02T05:27:04;7.90;72.80
15359;DHT22;7779;49.596;11.070;2024-03-02T05:29:31;7.90;72.80
15359;DHT22;7779;49.596;11.070;2024-03-02T05:31:57;7.80;72.80
15359;DHT22;7779;49.596;11.070;2024-03-02T05:34:23;7.80;72.70
15359;DHT22;7779;49.596;11.070;2024-03-02T05:36:48;7.80;72.70
15359;DHT22;7779;49.596;11.070;2024-03-02T05:39:14;7.80;72.80
15359;DHT22;7779;49.596;11.070;2024-03-02T05:41:41;7.70;72.90
15359;DHT22;7779;49.596;11.070;2024-03-02T05:44:06;7.70;72.80
15359;DHT22;7779;49.596;11.070;2024-03-02T05:46:32;7.70;72.90
15359;DHT22;7779;49.596;11.070;2024-03-02T05:48:59;7.70;73.00
15359;DHT22;7779;49.596;11.070;2024-03-02T05:51:26;7.60;73.00
15359;DHT22;7779;49.596;11.070;2024-03-02T05:53:52;7.60;73.10
15359;DHT22;7779;49.596;11.070;2024-03-02T05:56:17;7.60;73.10
15359;DHT22;7779;49.596;11.070;2024-03-02T05:58:43;7.60;73.20
15359;DHT22;7779;49.596;11.070;2024-03-02T06:01:23;7.60;73.20
15359;DHT22;7779;49.596;11.070;2024-03-02T06:03:55;7.60;73.20
15359;DHT22;7779;49.596;11.070;2024-03-02T06:06:22;7.50;73.10
15359;DHT22;7779;49.596;11.070;2024-03-02T06:08:48;7.50;73.10
15359;DHT22;7779;49.596;11.070;2024-03-02T06:11:14;7.50;73.20
15359;DHT22;7779;49.596;11.070;2024-03-02T06:13:40;7.50;73.30
15359;DHT22;7779;49.596;11.070;2024-03-02T06:16:05;7.40;73.20
15359;DHT22;7779;49.596;11.070;2024-03-02T06:18:31;7.40;73.30
15359;DHT22;7779;49.596;11.070;2024-03-02T06:20:57;7.40;74.00
15359;DHT22;7779;49.596;11.070;2024-03-02T06:23:23;7.40;73.40
15359;DHT22;7779;49.596;11.070;2024-03-02T06:25:49;7.40;73.40
15359;DHT22;7779;49.596;11.070;2024-03-02T06:28:14;7.40;73.50
15359;DHT22;7779;49.596;11.070;2024-03-02T06:30:41;7.40;73.60
15359;DHT22;7779;49.596;11.070;2024-03-02T06:33:08;7.40;73.60
15359;DHT22;7779;49.596;11.070;2024-03-02T06:35:34;7.40;73.70
15359;DHT22;7779;49.596;11.070;2024-03-02T06:38:00;7.30;73.70
15359;DHT22;7779;49.596;11.070;2024-03-02T06:40:27;7.30;73.80
15359;DHT22;7779;49.596;11.070;2024-03-02T06:42:52;7.30;73.80
15359;DHT22;7779;49.596;11.070;2024-03-02T06:45:18;7.30;73.90
15359;DHT22;7779;49.596;11.070;2024-03-02T06:47:44;7.30;75.40
15359;DHT22;7779;49.596;11.070;2024-03-02T06:50:09;7.30;74.20
15359;DHT22;7779;49.596;11.070;2024-03-02T06:52:35;7.40;74.50
15359;DHT22;7779;49.596;11.070;2024-03-02T06:55:02;7.40;74.50
15359;DHT22;7779;49.596;11.070;2024-03-02T06:57:29;7.40;74.60
15359;DHT22;7779;49.596;11.070;2024-03-02T06:59:55;7.40;74.80
15359;DHT22;7779;49.596;11.070;2024-03-02T07:02:24;7.40;74.90
15359;DHT22;7779;49.596;11.070;2024-03-02T07:04:53;7.50;74.90
15359;DHT22;7779;49.596;11.070;2024-03-02T07:07:19;7.50;75.00
15359;DHT22;7779;49.596;11.070;2024-03-02T07:09:45;7.60;75.20
15359;DHT22;7779;49.596;11.070;2024-03-02T07:12:11;7.60;75.20
15359;DHT22;7779;49.596;11.070;2024-03-02T07:14:36;7.60;75.30
15359;DHT22;7779;49.596;11.070;2024-03-02T07:17:34;7.70;75.50
15359;DHT22;7779;49.596;11.070;2024-03-02T07:20:02;7.80;75.60
15359;DHT22;7779;49.596;11.070;2024-03-02T07:22:32;7.80;75.70
15359;DHT22;7779;49.596;11.070;2024-03-02T07:24:58;7.90;75.80
15359;DHT22;7779;49.596;11.070;2024-03-02T07:27:24;8.00;76.00
15359;DHT22;7779;49.596;11.070;2024-03-02T07:29:50;8.00;76.10
15359;DHT22;7779;49.596;11.070;2024-03-02T07:32:15;8.10;76.40
15359;DHT22;7779;49.596;11.070;2024-03-02T07:34:41;8.20;76.70
15359;DHT22;7779;49.596;11.070;2024-03-02T07:37:07;8.30;76.90
15359;DHT22;7779;49.596;11.070;2024-03-02T07:39:33;8.50;77.10
15359;DHT22;7779;49.596;11.070;2024-03-02T07:41:59;8.60;77.20
15359;DHT22;7779;49.596;11.070;2024-03-02T07:44:25;8.70;77.20
15359;DHT22;7779;49.596;11.070;2024-03-02T07:46:51;8.90;77.10
15359;DHT22;7779;49.596;11.070;2024-03-02T07:49:17;8.90;76.80
15359;DHT22;7779;49.596;11.070;2024-03-02T07:51:44;9.10;76.80
15359;DHT22;7779;49.596;11.070;2024-03-02T07:54:10;9.20;76.60
15359;DHT22;7779;49.596;11.070;2024-03-02T07:56:36;9.30;76.40
15359;DHT22;7779;49.596;11.070;2024-03-02T07:59:02;9.40;76.30
15359;DHT22;7779;49.596;11.070;2024-03-02T08:01:31;9.50;76.20
15359;DHT22;7779;49.596;11.070;2024-03-02T08:04:01;9.50;76.00
15359;DHT22;7779;49.596;11.070;2024-03-02T08:06:29;9.60;76.00
15359;DHT22;7779;49.596;11.070;2024-03-02T08:08:56;9.70;75.80
15359;DHT22;7779;49.596;11.070;2024-03-02T08:11:23;9.80;75.70
15359;DHT22;7779;49.596;11.070;2024-03-02T08:13:50;9.90;75.70
15359;DHT22;7779;49.596;11.070;2024-03-02T08:16:16;10.00;74.50
15359;DHT22;7779;49.596;11.070;2024-03-02T08:18:45;10.00;74.30
15359;DHT22;7779;49.596;11.070;2024-03-02T08:21:12;10.10;74.30
15359;DHT22;7779;49.596;11.070;2024-03-02T08:23:40;10.20;74.40
15359;DHT22;7779;49.596;11.070;2024-03-02T08:26:08;10.20;74.20
15359;DHT22;7779;49.596;11.070;2024-03-02T08:28:34;10.30;74.10
15359;DHT22;7779;49.596;11.070;2024-03-02T08:31:00;10.40;74.10
15359;DHT22;7779;49.596;11.070;2024-03-02T08:33:25;10.40;74.00
15359;DHT22;7779;49.596;11.070;2024-03-02T08:35:51;10.50;73.90
15359;DHT22;7779;49.596;11.070;2024-03-02T08:38:17;10.60;73.20
15359;DHT22;7779;49.596;11.070;2024-03-02T08:40:44;10.60;73.80
15359;DHT22;7779;49.596;11.070;2024-03-02T08:43:10;10.70;73.70
15359;DHT22;7779;49.596;11.070;2024-03-02T08:45:36;10.70;73.60
15359;DHT22;7779;49.596;11.070;2024-03-02T08:48:02;10.80;73.50
15359;DHT22;7779;49.596;11.070;2024-03-02T08:50:28;10.80;73.40
15359;DHT22;7779;49.596;11.070;2024-03-02T08:52:53;10.90;73.40
15359;DHT22;7779;49.596;11.070;2024-03-02T08:55:19;11.00;73.40
15359;DHT22;7779;49.596;11.070;2024-03-02T08:57:45;11.00;73.40
15359;DHT22;7779;49.596;11.070;2024-03-02T09:00:11;11.10;73.60
15359;DHT22;7779;49.596;11.070;2024-03-02T09:02:37;11.20;73.70
15359;DHT22;7779;49.596;11.070;2024-03-02T09:05:04;11.30;73.70
15359;DHT22;7779;49.596;11.070;2024-03-02T09:07:30;11.40;73.60
15359;DHT22;7779;49.596;11.070;2024-03-02T09:09:56;11.50;73.60
15359;DHT22;7779;49.596;11.070;2024-03-02T09:12:22;11.50;73.40
15359;DHT22;7779;49.596;11.070;2024-03-02T09:14:48;11.70;73.40
15359;DHT22;7779;49.596;11.070;2024-03-02T09:17:14;11.80;74.00
15359;DHT22;7779;49.596;11.070;2024-03-02T09:19:40;11.80;73.10
15359;DHT22;7779;49.596;11.070;2024-03-02T09:22:05;11.90;73.00
15359;DHT22;7779;49.596;11.070;2024-03-02T09:24:32;12.00;73.00
15359;DHT22;7779;49.596;11.070;2024-03-02T09:27:00;12.10;72.80
15359;DHT22;7779;49.596;11.070;2024-03-02T09:29:26;12.20;72.70
15359;DHT22;7779;49.596;11.070;2024-03-02T09:31:52;12.30;72.60
15359;DHT22;7779;49.596;11.070;2024-03-02T09:34:18;12.40;72.40
15359;DHT22;7779;49.596;11.070;2024-03-02T09:36:43;12.50;72.30
15359;DHT22;7779;49.596;11.070;2024-03-02T09:39:09;12.60;72.10
15359;DHT22;7779;49.596;11.070;2024-03-02T09:41:36;12.60;71.70
15359;DHT22;7779;49.596;11.070;2024-03-02T09:44:04;12.70;71.50
15359;DHT22;7779;49.596;11.070;2024-03-02T09:46:30;12.80;71.40
15359;DHT22;7779;49.596;11.070;2024-03-02T09:48:56;12.90;71.40
15359;DHT22;7779;49.596;11.070;2024-03-02T09:51:23;12.90;71.10
15359;DHT22;7779;49.596;11.070;2024-03-02T09:53:49;13.00;71.00
15359;DHT22;7779;49.596;11.070;2024-03-02T09:56:15;13.10;71.00
15359;DHT22;7779;49.596;11.070;2024-03-02T09:58:41;13.20;70.90
15359;DHT22;7779;49.596;11.070;2024-03-02T10:01:08;13.30;70.70
15359;DHT22;7779;49.596;11.070;2024-03-02T10:03:37;13.40;70.70
15359;DHT22;7779;49.596;11.070;2024-03-02T10:06:22;13.50;70.50
15359;DHT22;7779;49.596;11.070;2024-03-02T10:08:48;13.50;69.10
15359;DHT22;7779;49.596;11.070;2024-03-02T10:11:30;13.60;70.00
15359;DHT22;7779;49.596;11.070;2024-03-02T10:14:11;13.70;68.70
15359;DHT22;7779;49.596;11.070;2024-03-02T10:16:40;13.80;69.00
15359;DHT22;7779;49.596;11.070;2024-03-02T10:19:23;13.90;69.70
15359;DHT22;7779;49.596;11.070;2024-03-02T10:21:55;13.90;68.40
15359;DHT22;7779;49.596;11.070;2024-03-02T10:24:22;14.00;69.10
15359;DHT22;7779;49.596;11.070;2024-03-02T10:26:49;14.10;69.20
15359;DHT22;7779;49.596;11.070;2024-03-02T10:29:16;14.10;69.00
15359;DHT22;7779;49.596;11.070;2024-03-02T10:31:43;14.20;69.60
15359;DHT22;7779;49.596;11.070;2024-03-02T10:34:14;14.30;68.60
15359;DHT22;7779;49.596;11.070;2024-03-02T10:36:42;14.30;68.50
15359;DHT22;7779;49.596;11.070;2024-03-02T10:39:09;14.40;68.30
15359;DHT22;7779;49.596;11.070;2024-03-02T10:41:36;14.40;68.20
15359;DHT22;7779;49.596;11.070;2024-03-02T10:44:08;14.50;67.90
15359;DHT22;7779;49.596;11.070;2024-03-02T10:46:36;14.60;67.50
15359;DHT22;7779;49.596;11.070;2024-03-02T10:49:03;14.60;67.70
15359;DHT22;7779;49.596;11.070;2024-03-02T10:51:31;14.70;67.70
15359;DHT22;7779;49.596;11.070;2024-03-02T10:53:59;14.80;67.50
15359;DHT22;7779;49.596;11.070;2024-03-02T10:56:31;14.90;67.40
15359;DHT22;7779;49.596;11.070;2024-03-02T11:02:04;15.00;66.70
15359;DHT22;7779;49.596;11.070;2024-03-02T11:04:32;15.10;67.20
15359;DHT22;7779;49.596;11.070;2024-03-02T11:07:03;15.20;67.20
15359;DHT22;7779;49.596;11.070;2024-03-02T11:09:34;15.30;67.10
15359;DHT22;7779;49.596;11.070;2024-03-02T11:14:44;15.40;66.50
15359;DHT22;7779;49.596;11.070;2024-03-02T11:17:11;15.50;66.90
15359;DHT22;7779;49.596;11.070;2024-03-02T11:19:41;15.60;66.50
15359;DHT22;7779;49.596;11.070;2024-03-02T11:22:08;15.70;66.20
15359;DHT22;7779;49.596;11.070;2024-03-02T11:24:34;15.80;65.90
15359;DHT22;7779;49.596;11.070;2024-03-02T11:27:05;15.90;65.80
15359;DHT22;7779;49.596;11.070;2024-03-02T11:32:19;16.00;64.80
15359;DHT22;7779;49.596;11.070;2024-03-02T11:34:49;16.00;64.50
15359;DHT22;7779;49.596;11.070;2024-03-02T11:37:19;16.00;65.00
15359;DHT22;7779;49.596;11.070;2024-03-02T11:39:47;16.10;64.10
15359;DHT22;7779;49.596;11.070;2024-03-02T11:42:15;16.10;64.30
15359;DHT22;7779;49.596;11.070;2024-03-02T11:44:46;16.10;64.20
15359;DHT22;7779;49.596;11.070;2024-03-02T11:47:17;16.20;64.00
15359;DHT22;7779;49.596;11.070;2024-03-02T11:49:49;16.20;63.60
15359;DHT22;7779;49.596;11.070;2024-03-02T11:52:17;16.20;62.70
15359;DHT22;7779;49.596;11.070;2024-03-02T11:54:47;16.20;63.30
15359;DHT22;7779;49.596;11.070;2024-03-02T11:57:20;16.20;62.70
15359;DHT22;7779;49.596;11.070;2024-03-02T11:59:49;16.20;62.70
15359;DHT22;7779;49.596;11.070;2024-03-02T12:02:17;16.20;63.00
15359;DHT22;7779;49.596;11.070;2024-03-02T12:04:45;16.20;62.80
15359;DHT22;7779;49.596;11.070;2024-03-02T12:07:12;16.30;62.90
15359;DHT22;7779;49.596;11.070;2024-03-02T12:09:38;16.30;62.70
15359;DHT22;7779;49.596;11.070;2024-03-02T12:12:08;16.30;62.50
15359;DHT22;7779;49.596;11.070;2024-03-02T12:14:36;16.30;62.10
15359;DHT22;7779;49.596;11.070;2024-03-02T12:17:04;16.30;62.20
15359;DHT22;7779;49.596;11.070;2024-03-02T12:19:32;16.20;62.00
15359;DHT22;7779;49.596;11.070;2024-03-02T12:21:59;16.20;62.00
15359;DHT22;7779;49.596;11.070;2024-03-02T12:24:29;16.10;61.80
15359;DHT22;7779;49.596;11.070;2024-03-02T12:26:55;16.10;61.50
15359;DHT22;7779;49.596;11.070;2024-03-02T12:29:22;16.00;61.60
15359;DHT22;7779;49.596;11.070;2024-03-02T12:31:50;16.00;61.70
15359;DHT22;7779;49.596;11.070;2024-03-02T12:34:18;16.00;61.50
15359;DHT22;7779;49.596;11.070;2024-03-02T12:36:47;15.90;61.40
15359;DHT22;7779;49.596;11.070;2024-03-02T12:39:20;15.90;61.40
15359;DHT22;7779;49.596;11.070;2024-03-02T12:41:47;15.90;61.10
15359;DHT22;7779;49.596;11.070;2024-03-02T12:44:16;15.80;61.10
15359;DHT22;7779;49.596;11.070;2024-03-02T12:46:42;15.80;61.20
15359;DHT22;7779;49.596;11.070;2024-03-02T12:49:10;15.70;61.20
15359;DHT22;7779;49.596;11.070;2024-03-02T12:51:41;15.70;61.00
15359;DHT22;7779;49.596;11.070;2024-03-02T12:54:08;15.60;60.80
15359;DHT22;7779;49.596;11.070;2024-03-02T12:56:38;15.60;61.10
15359;DHT22;7779;49.596;11.070;2024-03-02T12:59:06;15.60;61.00
15359;DHT22;7779;49.596;11.070;2024-03-02T13:01:32;15.60;61.10
15359;DHT22;7779;49.596;11.070;2024-03-02T13:03:59;15.60;61.40
15359;DHT22;7779;49.596;11.070;2024-03-02T13:06:25;15.50;61.20
15359;DHT22;7779;49.596;11.070;2024-03-02T13:08:55;15.50;61.80
15359;DHT22;7779;49.596;11.070;2024-03-02T13:11:22;15.50;61.00
15359;DHT22;7779;49.596;11.070;2024-03-02T13:13:49;15.40;61.00
15359;DHT22;7779;49.596;11.070;2024-03-02T13:16:15;15.50;60.90
15359;DHT22;7779;49.596;11.070;2024-03-02T13:18:44;15.40;59.30
15359;DHT22;7779;49.596;11.070;2024-03-02T13:21:10;15.40;60.70
15359;DHT22;7779;49.596;11.070;2024-03-02T13:23:36;15.40;60.90
15359;DHT22;7779;49.596;11.070;2024-03-02T13:26:02;15.40;60.90
15359;DHT22;7779;49.596;11.070;2024-03-02T13:28:28;15.30;60.90
15359;DHT22;7779;49.596;11.070;2024-03-02T13:30:53;15.40;61.10
15359;DHT22;7779;49.596;11.070;2024-03-02T13:33:19;15.30;61.00
15359;DHT22;7779;49.596;11.070;2024-03-02T13:35:49;15.40;61.10
15359;DHT22;7779;49.596;11.070;2024-03-02T13:38:17;15.40;61.00
15359;DHT22;7779;49.596;11.070;2024-03-02T13:40:44;15.40;61.00
15359;DHT22;7779;49.596;11.070;2024-03-02T13:43:11;15.40;61.10
15359;DHT22;7779;49.596;11.070;2024-03-02T13:45:38;15.40;61.00
15359;DHT22;7779;49.596;11.070;2024-03-02T13:48:04;15.40;60.90
15359;DHT22;7779;49.596;11.070;2024-03-02T13:50:30;15.50;61.00
15359;DHT22;7779;49.596;11.070;2024-03-02T13:52:56;15.50;60.70
15359;DHT22;7779;49.596;11.070;2024-03-02T13:55:22;15.50;60.50
15359;DHT22;7779;49.596;11.070;2024-03-02T13:57:48;15.50;60.40
15359;DHT22;7779;49.596;11.070;2024-03-02T14:00:17;15.60;60.40
15359;DHT22;7779;49.596;11.070;2024-03-02T14:02:45;15.60;60.40
15359;DHT22;7779;49.596;11.070;2024-03-02T14:05:11;15.60;60.30
15359;DHT22;7779;49.596;11.070;2024-03-02T14:07:39;15.60;60.00
15359;DHT22;7779;49.596;11.070;2024-03-02T14:10:06;15.60;60.00
15359;DHT22;7779;49.596;11.070;2024-03-02T14:12:32;15.70;60.20
15359;DHT22;7779;49.596;11.070;2024-03-02T14:14:58;15.70;60.10
15359;DHT22;7779;49.596;11.070;2024-03-02T14:17:26;15.70;60.10
15359;DHT22;7779;49.596;11.070;2024-03-02T14:19:52;15.70;59.50
15359;DHT22;7779;49.596;11.070;2024-03-02T14:22:21;15.70;59.70
15359;DHT22;7779;49.596;11.070;2024-03-02T14:24:48;15.80;59.70
15359;DHT22;7779;49.596;11.070;2024-03-02T14:27:14;15.80;59.50
15359;DHT22;7779;49.596;11.070;2024-03-02T14:29:42;15.70;59.40
15359;DHT22;7779;49.596;11.070;2024-03-02T14:32:08;15.70;59.40
15359;DHT22;7779;49.596;11.070;2024-03-02T14:34:34;15.70;59.40
15359;DHT22;7779;49.596;11.070;2024-03-02T14:37:00;15.70;59.30
15359;DHT22;7779;49.596;11.070;2024-03-02T14:39:26;15.70;59.30
15359;DHT22;7779;49.596;11.070;2024-03-02T14:41:52;15.70;59.30
15359;DHT22;7779;49.596;11.070;2024-03-02T14:44:18;15.70;59.20
15359;DHT22;7779;49.596;11.070;2024-03-02T14:46:47;15.70;59.20
15359;DHT22;7779;49.596;11.070;2024-03-02T14:49:13;15.70;59.10
15359;DHT22;7779;49.596;11.070;2024-03-02T14:51:39;15.70;59.20
15359;DHT22;7779;49.596;11.070;2024-03-02T14:54:05;15.70;59.20
15359;DHT22;7779;49.596;11.070;2024-03-02T14:56:31;15.60;58.60
15359;DHT22;7779;49.596;11.070;2024-03-02T14:58:56;15.60;59.20
15359;DHT22;7779;49.596;11.070;2024-03-02T15:01:22;15.60;59.30
15359;DHT22;7779;49.596;11.070;2024-03-02T15:03:50;15.50;59.10
15359;DHT22;7779;49.596;11.070;2024-03-02T15:06:16;15.50;59.30
15359;DHT22;7779;49.596;11.070;2024-03-02T15:08:42;15.50;59.40
15359;DHT22;7779;49.596;11.070;2024-03-02T15:11:08;15.50;59.30
15359;DHT22;7779;49.596;11.070;2024-03-02T15:13:34;15.40;59.20
15359;DHT22;7779;49.596;11.070;2024-03-02T15:16:00;15.40;59.20
15359;DHT22;7779;49.596;11.070;2024-03-02T15:18:26;15.40;57.50
15359;DHT22;7779;49.596;11.070;2024-03-02T15:20:52;15.30;59.00
15359;DHT22;7779;49.596;11.070;2024-03-02T15:23:18;15.30;58.90
15359;DHT22;7779;49.596;11.070;2024-03-02T15:25:44;15.30;59.00
15359;DHT22;7779;49.596;11.070;2024-03-02T15:28:10;15.30;59.00
15359;DHT22;7779;49.596;11.070;2024-03-02T15:30:35;15.20;58.90
15359;DHT22;7779;49.596;11.070;2024-03-02T15:33:02;15.10;58.80
15359;DHT22;7779;49.596;11.070;2024-03-02T15:35:28;15.10;58.30
15359;DHT22;7779;49.596;11.070;2024-03-02T15:37:54;15.00;58.60
15359;DHT22;7779;49.596;11.070;2024-03-02T15:40:20;15.00;58.80
15359;DHT22;7779;49.596;11.070;2024-03-02T15:42:45;14.90;58.90
15359;DHT22;7779;49.596;11.070;2024-03-02T15:45:11;14.90;58.70
15359;DHT22;7779;49.596;11.070;2024-03-02T15:47:37;14.80;58.80
15359;DHT22;7779;49.596;11.070;2024-03-02T15:50:03;14.70;58.80